Time;durP1;ratioP1;P1;durP2;ratioP2;P2;SDS_P1;SDS_P2;PMS_P1;PMS_P2;Temp;Humidity;BMP_temperature;BMP_pressure;BME280_temperature;BME280_humidity;BME280_pressure;Samples;Min_cycle;Max_cycle;Signal;HPM_P1;HPM_P2
2022/05/14 00:00:08;;;;;;;2.95;1.20;;;;;;;12.44;86.03;101635.94;6274051;28;20405;-74
2022/05/14 00:03:10;;;;;;;5.15;1.52;;;;;;;12.44;86.46;101629.78;6274301;28;20060;-74
2022/05/14 00:06:15;;;;;;;2.97;1.00;;;;;;;12.40;86.63;101626.44;6275139;28;20056;-74
2022/05/14 00:09:18;;;;;;;6.10;1.33;;;;;;;12.34;87.10;101628.50;6274283;28;20053;-74
2022/05/14 00:15:42;;;;;;;2.33;1.40;;;;;;;12.40;86.91;101621.19;6273942;28;20053;-74
2022/05/14 00:18:44;;;;;;;1.40;1.27;;;;;;;12.47;86.86;101631.44;6273796;28;20056;-73
2022/05/14 00:21:45;;;;;;;3.00;1.73;;;;;;;12.50;86.31;101626.03;6273620;28;20416;-74
2022/05/14 00:24:48;;;;;;;1.98;1.35;;;;;;;12.54;85.92;101625.81;6273478;28;20056;-74
2022/05/14 00:27:50;;;;;;;4.43;1.63;;;;;;;12.55;85.63;101618.75;6273866;28;20060;-73
2022/05/14 00:30:51;;;;;;;4.57;1.45;;;;;;;12.51;85.93;101618.03;6273606;28;20060;-73
2022/05/14 00:33:52;;;;;;;4.78;1.60;;;;;;;12.50;86.36;101618.97;6274271;28;20417;-74
2022/05/14 00:36:54;;;;;;;1.92;1.55;;;;;;;12.43;86.95;101614.88;6273363;28;20049;-75
2022/05/14 00:39:59;;;;;;;2.63;1.52;;;;;;;12.31;87.61;101616.34;6273384;28;20052;-74
2022/05/14 00:43:00;;;;;;;2.88;1.58;;;;;;;12.22;88.02;101615.88;6273282;28;20048;-74
2022/05/14 00:46:08;;;;;;;1.10;1.00;;;;;;;12.13;88.25;101619.81;6273245;28;20040;-74
2022/05/14 00:49:10;;;;;;;2.95;1.17;;;;;;;12.02;89.24;101627.34;6273231;28;20049;-74
2022/05/14 00:52:15;;;;;;;1.10;1.00;;;;;;;11.95;90.66;101628.56;6272966;28;20048;-73
2022/05/14 00:55:18;;;;;;;5.43;1.80;;;;;;;11.96;90.83;101623.22;6272935;28;20049;-74
2022/05/14 00:58:30;;;;;;;6.38;1.70;;;;;;;11.89;90.61;101625.25;6272981;28;20575;-74
2022/05/14 01:01:31;;;;;;;1.55;1.27;;;;;;;11.81;91.47;101627.38;6272249;28;20056;-74
2022/05/14 01:04:33;;;;;;;3.45;1.77;;;;;;;11.77;92.48;101622.31;6272365;28;20048;-74
2022/05/14 01:07:36;;;;;;;2.67;1.27;;;;;;;11.73;92.66;101616.31;6272715;28;20053;-74
2022/05/14 01:10:43;;;;;;;5.50;1.73;;;;;;;11.75;92.68;101610.97;6272469;28;20508;-74
2022/05/14 01:13:44;;;;;;;2.63;1.13;;;;;;;11.76;92.52;101604.75;6272412;28;20499;-74
2022/05/14 01:16:46;;;;;;;2.15;1.35;;;;;;;11.68;93.00;101611.25;6272581;28;20447;-74
2022/05/14 01:19:47;;;;;;;5.40;1.58;;;;;;;11.60;93.85;101609.88;6272205;28;20060;-74
2022/05/14 01:23:02;;;;;;;6.32;1.80;;;;;;;11.53;95.46;101601.38;6272199;28;20041;-73
2022/05/14 01:26:27;;;;;;;3.60;1.45;;;;;;;11.62;93.85;101595.69;6272191;28;20049;-74
2022/05/14 01:29:29;;;;;;;3.92;1.92;;;;;;;11.67;93.71;101591.13;6272411;28;20049;-74
2022/05/14 01:32:31;;;;;;;6.47;2.00;;;;;;;11.66;94.35;101599.91;6273210;28;20057;-75
2022/05/14 01:35:33;;;;;;;3.10;2.15;;;;;;;11.62;94.34;101595.69;6271977;28;20111;-74
2022/05/14 01:38:35;;;;;;;3.10;2.03;;;;;;;11.62;93.69;101592.22;6272192;28;20057;-73
2022/05/14 01:41:38;;;;;;;4.90;2.20;;;;;;;11.59;93.56;101598.50;6271595;28;20056;-74
2022/05/14 01:44:40;;;;;;;4.80;2.58;;;;;;;11.55;93.65;101590.78;6271971;28;20056;-74
2022/05/14 01:47:42;;;;;;;2.42;1.77;;;;;;;11.57;93.56;101586.31;6271783;28;20496;-73
2022/05/14 01:50:43;;;;;;;3.35;2.03;;;;;;;11.56;94.31;101600.38;6271849;28;20053;-74
2022/05/14 01:53:45;;;;;;;7.80;1.52;;;;;;;11.63;93.35;101597.44;6271138;28;20052;-74
2022/05/14 01:56:47;;;;;;;5.50;1.73;;;;;;;11.69;92.30;101604.19;6271757;28;20060;-74
2022/05/14 01:59:48;;;;;;;2.80;1.40;;;;;;;11.76;91.84;101592.44;6271532;28;20071;-74
2022/05/14 02:02:50;;;;;;;5.43;2.10;;;;;;;11.86;91.67;101591.16;6270993;28;20044;-74
2022/05/14 02:05:52;;;;;;;3.50;1.70;;;;;;;11.87;91.95;101589.38;6271408;28;20530;-74
2022/05/14 02:08:53;;;;;;;3.85;1.63;;;;;;;11.87;91.07;101589.38;6271570;28;20049;-74
2022/05/14 02:11:56;;;;;;;2.72;1.70;;;;;;;11.92;90.97;101592.66;6271378;28;20049;-74
2022/05/14 02:14:57;;;;;;;3.15;1.70;;;;;;;11.94;91.09;101588.16;6271172;28;20416;-74
2022/05/14 02:17:59;;;;;;;2.40;1.50;;;;;;;11.97;91.19;101592.47;6271622;28;20049;-74
2022/05/14 02:21:00;;;;;;;1.92;1.60;;;;;;;11.93;90.86;101587.31;6271242;28;20558;-74
2022/05/14 02:24:01;;;;;;;8.13;1.77;;;;;;;11.93;91.30;101589.94;6271363;28;20048;-74
2022/05/14 02:27:06;;;;;;;2.35;1.20;;;;;;;11.96;90.84;101590.75;6271638;28;20056;-74
2022/05/14 02:30:08;;;;;;;4.07;1.75;;;;;;;11.93;91.05;101591.72;6270938;28;20467;-74
2022/05/14 02:33:10;;;;;;;4.75;1.85;;;;;;;11.93;91.41;101589.94;6291219;28;20052;-74
2022/05/14 02:36:12;;;;;;;4.25;1.27;;;;;;;11.95;91.45;101586.41;6295803;28;20056;-74
2022/05/14 02:39:13;;;;;;;2.35;1.50;;;;;;;11.95;91.75;101566.19;6309617;23;20036;-77
2022/05/14 02:42:16;;;;;;;3.60;1.80;;;;;;;11.92;91.21;101580.34;6211252;28;20050;-77
2022/05/14 02:45:17;;;;;;;8.45;1.73;;;;;;;11.87;91.41;101590.25;6221693;28;20107;-77
2022/05/14 02:48:19;;;;;;;5.43;2.13;;;;;;;11.80;91.13;101594.03;6219182;28;20050;-77
2022/05/14 02:51:21;;;;;;;2.50;1.25;;;;;;;11.79;91.08;101591.47;6220495;28;20050;-77
2022/05/14 02:54:22;;;;;;;4.43;1.73;;;;;;;11.83;90.42;101596.56;6221341;28;20050;-77
2022/05/14 02:57:25;;;;;;;2.05;1.55;;;;;;;11.81;90.96;101597.50;6221761;28;20513;-77
2022/05/14 03:00:26;;;;;;;5.43;1.92;;;;;;;11.74;91.28;101602.22;6207550;28;20054;-78
2022/05/14 03:03:28;;;;;;;5.82;2.35;;;;;;;11.70;91.61;101595.38;6203808;28;20437;-77
2022/05/14 03:06:29;;;;;;;4.97;2.00;;;;;;;11.70;92.04;101600.63;6221014;28;20096;-78
2022/05/14 03:09:30;;;;;;;5.65;2.10;;;;;;;11.72;91.91;101595.28;6226675;28;20076;-78
2022/05/14 03:12:34;;;;;;;2.50;1.88;;;;;;;11.73;91.43;101597.03;6227098;28;20050;-77
2022/05/14 03:15:35;;;;;;;3.20;1.50;;;;;;;11.75;91.59;101596.00;6230933;28;20046;-78
2022/05/14 03:18:37;;;;;;;4.82;1.92;;;;;;;11.74;90.81;101606.63;6251114;28;20054;-78
2022/05/14 03:21:38;;;;;;;3.20;1.63;;;;;;;11.74;90.56;101596.09;6252190;28;20501;-77
2022/05/14 03:24:40;;;;;;;3.88;1.77;;;;;;;11.78;90.59;101602.94;6228323;28;20045;-77
2022/05/14 03:27:42;;;;;;;2.97;1.40;;;;;;;11.76;89.56;101616.16;6210975;28;20046;-77
2022/05/14 03:30:44;;;;;;;4.38;1.45;;;;;;;11.77;89.17;101607.34;6201197;28;20453;-77
2022/05/14 03:33:45;;;;;;;2.72;1.30;;;;;;;11.79;89.57;101608.13;6221413;28;20053;-77
2022/05/14 03:36:47;;;;;;;4.68;1.63;;;;;;;11.76;89.95;101613.50;6232931;28;20425;-77
2022/05/14 03:39:48;;;;;;;4.43;1.60;;;;;;;11.73;89.75;101616.31;6249745;28;20143;-77
2022/05/14 03:42:51;;;;;;;3.15;1.85;;;;;;;11.76;89.45;101612.66;6250469;28;20504;-77
2022/05/14 03:45:52;;;;;;;2.17;1.45;;;;;;;11.79;89.49;101612.53;6249800;28;20045;-77
2022/05/14 03:48:53;;;;;;;3.42;1.95;;;;;;;11.79;89.00;101621.28;6249874;28;20103;-77
2022/05/14 03:51:55;;;;;;;6.80;2.35;;;;;;;11.70;89.62;101613.81;6249850;28;20049;-77
2022/05/14 03:54:56;;;;;;;8.02;1.75;;;;;;;11.66;89.70;101617.50;6249969;28;20504;-77
2022/05/14 03:57:59;;;;;;;1.80;1.30;;;;;;;11.67;89.73;101621.81;6249977;28;20046;-77
2022/05/14 04:01:00;;;;;;;3.15;1.30;;;;;;;11.61;89.39;101622.09;6249359;28;20520;-77
2022/05/14 04:04:01;;;;;;;2.90;2.28;;;;;;;11.57;89.63;101628.41;6225033;28;20053;-77
2022/05/14 04:07:03;;;;;;;2.15;1.50;;;;;;;11.52;89.62;101636.50;6224881;28;20053;-77
2022/05/14 04:10:06;;;;;;;6.22;1.80;;;;;;;11.50;90.26;101634.88;6224614;28;20452;-77
2022/05/14 04:13:09;;;;;;;6.43;1.60;;;;;;;11.51;90.61;101636.59;6224986;28;20053;-77
2022/05/14 04:16:11;;;;;;;1.77;1.17;;;;;;;11.50;89.94;101643.63;6224458;28;20133;-77
2022/05/14 04:19:13;;;;;;;5.03;2.17;;;;;;;11.49;90.30;101643.69;6224931;28;20058;-78
2022/05/14 04:22:14;;;;;;;4.60;1.67;;;;;;;11.52;90.56;101640.94;6225372;28;20498;-78
2022/05/14 04:25:19;;;;;;;5.15;1.55;;;;;;;11.53;90.54;101645.25;6224440;28;20061;-78
2022/05/14 04:28:22;;;;;;;4.65;1.42;;;;;;;11.48;90.86;101644.59;6224872;28;20159;-78
2022/05/14 04:31:24;;;;;;;3.13;1.95;;;;;;;11.43;91.14;101642.16;6225473;28;20057;-78
2022/05/14 04:34:25;;;;;;;5.30;1.50;;;;;;;11.45;91.30;101645.63;6225393;28;20046;-78
2022/05/14 04:37:26;;;;;;;2.22;1.80;;;;;;;11.48;90.92;101656.00;6228199;28;20456;-78
2022/05/14 04:40:28;;;;;;;4.03;1.42;;;;;;;11.48;90.63;101650.72;6225084;28;20057;-78
2022/05/14 04:43:31;;;;;;;4.57;1.33;;;;;;;11.53;91.16;101656.66;6225326;28;20056;-77
2022/05/14 04:46:35;;;;;;;8.15;2.88;;;;;;;11.51;90.80;101660.28;6224526;28;20057;-78
2022/05/14 04:49:38;;;;;;;2.67;1.67;;;;;;;11.54;90.32;101661.00;6225004;28;20056;-77
2022/05/14 04:52:40;;;;;;;6.45;1.70;;;;;;;11.56;90.65;101668.84;6224258;28;20049;-78
2022/05/14 04:55:42;;;;;;;6.65;2.42;;;;;;;11.57;90.49;101662.66;6224563;28;20050;-78
2022/05/14 04:58:45;;;;;;;4.55;1.27;;;;;;;11.58;90.96;101667.88;6223810;28;20057;-78
2022/05/14 05:05:03;;;;;;;5.78;1.45;;;;;;;11.61;91.20;101682.66;6229039;28;20052;-78
2022/05/14 05:08:05;;;;;;;1.48;1.02;;;;;;;11.60;92.44;101687.06;6224453;28;20132;-79
2022/05/14 05:11:06;;;;;;;1.33;1.05;;;;;;;11.62;92.42;101679.09;6203414;28;20057;-79
2022/05/14 05:14:09;;;;;;;7.35;2.13;;;;;;;11.65;92.50;101684.25;6199802;28;20459;-79
2022/05/14 05:17:10;;;;;;;4.82;1.40;;;;;;;11.64;93.27;101687.81;6199852;28;20049;-79
2022/05/14 05:20:12;;;;;;;3.00;2.03;;;;;;;11.74;92.94;101694.38;6208069;28;20046;-78
2022/05/14 05:23:15;;;;;;;6.97;2.95;;;;;;;11.79;92.96;101688.91;6224241;28;20617;-78
2022/05/14 05:26:16;;;;;;;2.42;1.50;;;;;;;11.84;92.99;101697.50;6204487;28;20054;-78
2022/05/14 05:29:19;;;;;;;4.93;1.60;;;;;;;11.87;92.93;101698.22;6201531;28;20046;-77
2022/05/14 05:32:20;;;;;;;2.58;1.50;;;;;;;11.95;93.79;101707.59;6230817;28;20136;-78
2022/05/14 05:35:21;;;;;;;2.35;1.40;;;;;;;12.02;93.97;101699.31;6249756;28;20052;-77
2022/05/14 05:38:23;;;;;;;2.10;1.48;;;;;;;12.13;93.56;101696.25;6247917;28;20064;-78
2022/05/14 05:41:26;;;;;;;1.52;1.42;;;;;;;12.22;92.25;101708.13;6247316;28;20049;-78
2022/05/14 05:44:29;;;;;;;5.70;1.80;;;;;;;12.25;92.40;101708.00;6239582;28;20056;-78
2022/05/14 05:47:30;;;;;;;8.98;2.22;;;;;;;12.23;93.10;101713.34;6222793;28;20046;-78
2022/05/14 05:50:31;;;;;;;7.97;1.50;;;;;;;12.19;93.22;101707.34;6222589;28;20505;-78
2022/05/14 05:56:56;;;;;;;4.57;1.27;;;;;;;12.32;92.87;101722.63;6219009;28;20042;-78
2022/05/14 05:59:59;;;;;;;5.28;2.40;;;;;;;12.44;93.07;101715.03;6218739;28;20501;-78
2022/05/14 06:03:00;;;;;;;3.80;1.80;;;;;;;12.53;93.04;101720.78;6221381;28;20065;-78
2022/05/14 06:06:02;;;;;;;7.00;2.00;;;;;;;12.55;93.32;101730.34;6220897;28;20143;-77
2022/05/14 06:09:03;;;;;;;5.22;1.80;;;;;;;12.60;93.67;101725.69;6221183;28;20060;-78
2022/05/14 06:12:06;;;;;;;4.38;1.80;;;;;;;12.64;94.07;101721.16;6220826;28;20054;-78
2022/05/14 06:15:11;;;;;;;6.82;1.98;;;;;;;12.69;94.09;101725.28;6218711;28;20049;-78
2022/05/14 06:18:13;;;;;;;5.13;1.90;;;;;;;12.73;94.03;101725.16;6221149;28;20038;-78
2022/05/14 06:21:14;;;;;;;5.57;1.92;;;;;;;12.77;93.38;101729.34;6219645;28;20061;-78
2022/05/14 06:24:16;;;;;;;9.57;2.35;;;;;;;12.81;92.79;101729.13;6223307;28;20057;-78
2022/05/14 06:27:17;;;;;;;7.65;2.45;;;;;;;12.89;92.86;101731.38;6224339;28;20536;-78
2022/05/14 06:30:20;;;;;;;5.68;2.67;;;;;;;12.92;92.25;101726.84;6222648;28;20061;-77
2022/05/14 06:33:22;;;;;;;6.65;2.08;;;;;;;12.94;91.97;101739.94;6236663;28;20177;-77
2022/05/14 06:36:23;;;;;;;5.25;2.00;;;;;;;12.95;92.25;101734.63;6247748;28;20053;-77
2022/05/14 06:39:24;;;;;;;5.90;2.22;;;;;;;13.08;91.88;101731.38;6234075;28;20512;-78
2022/05/14 06:42:26;;;;;;;7.05;1.95;;;;;;;13.08;92.22;101729.63;6226261;28;20041;-77
2022/05/14 06:45:29;;;;;;;10.45;2.33;;;;;;;13.10;92.65;101738.28;6225589;28;20504;-78
2022/05/14 06:48:31;;;;;;;6.85;2.67;;;;;;;13.19;91.53;101737.00;6223955;28;20065;-78
2022/05/14 06:51:34;;;;;;;8.43;1.98;;;;;;;13.25;91.00;101726.16;6224763;28;20176;-78
2022/05/14 06:54:38;;;;;;;6.50;2.30;;;;;;;13.29;91.69;101742.72;6226137;28;20056;-79
2022/05/14 06:57:40;;;;;;;4.05;2.38;;;;;;;13.34;91.40;101735.44;6227114;28;20084;-77
2022/05/14 07:00:42;;;;;;;12.20;2.13;;;;;;;13.34;91.92;101748.63;6226799;28;20129;-79
2022/05/14 07:07:05;;;;;;;5.38;2.00;;;;;;;13.42;91.67;101759.66;6251936;28;20081;-78
2022/05/14 07:10:07;;;;;;;6.00;2.67;;;;;;;13.45;90.60;101763.03;6250621;28;20489;-82
2022/05/14 07:13:08;;;;;;;9.48;2.28;;;;;;;13.46;90.46;101755.94;6252235;28;20059;-78
2022/05/14 07:16:11;;;;;;;14.02;2.95;;;;;;;13.54;90.31;101763.50;6252392;28;20054;-79
2022/05/14 07:19:13;;;;;;;3.38;2.00;;;;;;;13.64;90.73;101765.59;6251163;28;20056;-77
2022/05/14 07:22:15;;;;;;;5.05;2.10;;;;;;;13.70;91.63;101764.44;6250797;28;20580;-77
2022/05/14 07:25:16;;;;;;;8.05;1.52;;;;;;;13.75;91.37;101761.56;6251124;28;20049;-77
2022/05/14 07:28:18;;;;;;;10.98;2.70;;;;;;;13.75;89.71;101759.78;6250492;28;20401;-77
2022/05/14 07:31:20;;;;;;;8.05;2.25;;;;;;;13.82;88.53;101769.13;6248946;28;20535;-77
2022/05/14 07:34:23;;;;;;;6.05;2.15;;;;;;;13.91;88.73;101768.66;6226206;28;20083;-77
2022/05/14 07:37:30;;;;;;;8.23;2.25;;;;;;;13.96;88.62;101768.41;6225593;28;20065;-77
2022/05/14 07:40:34;;;;;;;6.93;3.20;;;;;;;13.99;87.29;101773.56;6225226;28;20061;-77
2022/05/14 07:43:39;;;;;;;7.65;2.38;;;;;;;14.08;86.74;101777.47;6225343;28;20060;-77
2022/05/14 07:46:44;;;;;;;8.93;2.83;;;;;;;14.14;87.03;101778.03;6225369;28;20053;-76
2022/05/14 07:49:48;;;;;;;6.68;2.88;;;;;;;14.21;83.25;101770.63;6224463;28;20050;-77
2022/05/14 07:52:51;;;;;;;7.05;2.05;;;;;;;14.27;85.95;101767.69;6225621;28;20046;-77
2022/05/14 07:55:53;;;;;;;5.20;2.45;;;;;;;14.32;83.10;101778.88;6224958;28;20060;-77
2022/05/14 07:58:54;;;;;;;5.03;2.08;;;;;;;14.38;82.58;101775.03;6224351;28;20394;-77
2022/05/14 08:01:57;;;;;;;11.18;2.10;;;;;;;14.43;81.84;101775.66;6227123;28;20046;-77
2022/05/14 08:05:01;;;;;;;10.68;2.00;;;;;;;14.53;81.92;101773.41;6224784;28;20050;-77
2022/05/14 08:08:03;;;;;;;6.30;2.10;;;;;;;14.59;81.63;101770.44;6219672;28;20068;-77
2022/05/14 08:11:04;;;;;;;8.75;2.00;;;;;;;14.75;79.97;101770.47;6221990;28;20056;-77
2022/05/14 08:14:05;;;;;;;4.30;1.75;;;;;;;14.76;78.62;101780.97;6224694;28;20049;-77
2022/05/14 08:17:09;;;;;;;7.60;2.20;;;;;;;14.80;78.62;101781.63;6225279;28;20042;-78
2022/05/14 08:20:12;;;;;;;4.45;2.03;;;;;;;14.91;79.22;101779.28;6225022;28;20053;-77
2022/05/14 08:26:34;;;;;;;;;;;;;;;15.09;77.11;101783.56;6224977;28;20057;-77
2022/05/14 08:29:35;;;;;;;6.53;1.75;;;;;;;15.14;77.08;101780.66;6224659;28;20024;-76
2022/05/14 08:32:38;;;;;;;4.72;1.50;;;;;;;15.23;75.95;101780.13;6238452;28;20183;-77
2022/05/14 08:35:40;;;;;;;11.15;2.95;;;;;;;15.23;76.84;101780.97;6249205;28;20050;-77
2022/05/14 08:38:41;;;;;;;3.47;1.65;;;;;;;15.31;77.22;101777.91;6234990;28;20060;-77
2022/05/14 08:41:45;;;;;;;7.35;1.85;;;;;;;15.41;75.87;101783.53;6224369;28;20425;-77
2022/05/14 08:44:47;;;;;;;7.13;1.75;;;;;;;15.50;75.83;101776.84;6235529;22;20050;-74
2022/05/14 08:47:56;;;;;;;10.77;1.70;;;;;;;15.64;75.07;101780.44;6218638;28;20050;-74
2022/05/14 08:51:03;;;;;;;4.35;1.70;;;;;;;15.80;73.31;101777.75;6223699;28;20060;-74
2022/05/14 08:54:06;;;;;;;13.98;2.40;;;;;;;16.01;71.72;101785.38;6232768;28;20128;-74
2022/05/14 08:57:13;;;;;;;7.03;1.80;;;;;;;16.08;70.82;101786.69;6248068;28;20045;-74
2022/05/14 09:00:16;;;;;;;6.38;1.60;;;;;;;16.12;70.81;101798.84;6247923;28;20048;-74
2022/05/14 09:03:20;;;;;;;2.63;1.35;;;;;;;16.17;70.44;101784.38;6246006;28;20060;-73
2022/05/14 09:06:22;;;;;;;4.38;2.03;;;;;;;16.17;68.35;101781.72;6247594;28;20481;-73
2022/05/14 09:09:23;;;;;;;10.25;2.00;;;;;;;16.26;69.63;101788.28;6247842;28;20049;-74
2022/05/14 09:12:27;;;;;;;5.57;1.63;;;;;;;16.33;69.50;101786.94;6247632;28;20520;-73
2022/05/14 09:15:32;;;;;;;2.53;1.30;;;;;;;16.39;67.00;101791.00;6246091;28;20053;-76
2022/05/14 09:18:45;;;;;;;6.30;1.63;;;;;;;16.35;68.64;101785.06;6247367;28;20390;-73
2022/05/14 09:21:50;;;;;;;9.88;2.50;;;;;;;16.43;67.15;101789.88;6222794;28;20052;-73
2022/05/14 09:24:55;;;;;;;5.22;1.80;;;;;;;16.57;66.19;101795.19;6222874;28;20057;-74
2022/05/14 09:28:00;;;;;;;5.10;1.40;;;;;;;16.53;64.73;101795.47;6223128;28;20052;-74
2022/05/14 09:31:01;;;;;;;7.32;1.75;;;;;;;16.65;65.18;101784.09;6223218;28;20056;-73
2022/05/14 09:34:11;;;;;;;10.27;1.92;;;;;;;16.73;63.41;101793.34;6241042;28;20413;-75
2022/05/14 09:37:13;;;;;;;;;;;;;;;16.69;64.45;101785.63;6247592;28;20041;-74
2022/05/14 09:40:21;;;;;;;6.57;1.80;;;;;;;16.76;59.86;101783.47;6247344;28;19920;-74
2022/05/14 09:43:32;;;;;;;6.15;1.85;;;;;;;16.90;60.90;101773.69;6243505;28;20412;-74
2022/05/14 09:46:34;;;;;;;5.72;1.77;;;;;;;17.14;61.51;101783.69;6245279;28;20045;-73
2022/05/14 09:49:39;;;;;;;4.97;1.52;;;;;;;17.36;60.63;101777.84;6243911;28;20049;-74
2022/05/14 09:52:41;;;;;;;10.15;2.28;;;;;;;17.32;59.80;101777.19;6247380;28;20102;-74
2022/05/14 09:56:04;;;;;;;10.63;2.30;;;;;;;17.13;61.79;101793.47;6246827;28;20068;-74
2022/05/14 09:59:20;;;;;;;2.83;1.60;;;;;;;17.09;59.58;101788.47;6247555;28;20053;-73
2022/05/14 10:02:28;;;;;;;5.03;2.00;;;;;;;17.10;60.00;101790.16;6246947;28;20049;-74
2022/05/14 10:05:51;;;;;;;6.88;1.65;;;;;;;17.15;59.11;101790.72;6245704;28;20084;-73
2022/05/14 10:09:03;;;;;;;3.47;1.33;;;;;;;17.44;57.61;101780.84;6244877;28;20049;-72
2022/05/14 10:12:20;;;;;;;4.65;1.70;;;;;;;17.58;55.74;101790.59;6236349;28;20045;-74
2022/05/14 10:15:33;;;;;;;5.15;1.45;;;;;;;17.56;56.23;101781.84;6246282;28;20049;-73
2022/05/14 10:18:45;;;;;;;9.68;2.00;;;;;;;17.36;57.08;101785.81;6246515;28;20060;-74
2022/05/14 10:21:57;;;;;;;6.97;1.85;;;;;;;17.38;57.85;101784.75;6246740;28;20077;-74
2022/05/14 10:28:31;;;;;;;2.55;1.17;;;;;;;17.78;54.65;101779.50;6246017;28;20500;-74
2022/05/14 10:31:38;;;;;;;4.80;1.90;;;;;;;17.90;55.15;101781.34;6245856;28;20045;-74
2022/05/14 10:34:47;;;;;;;5.05;1.10;;;;;;;18.10;54.33;101784.44;6242470;28;20049;-74
2022/05/14 10:37:52;;;;;;;6.20;1.63;;;;;;;18.34;54.15;101789.88;6246452;28;20057;-74
2022/05/14 10:40:57;;;;;;;4.05;1.67;;;;;;;18.58;54.91;101790.00;6246368;28;20046;-74
2022/05/14 10:44:02;;;;;;;2.10;1.00;;;;;;;18.58;51.64;101795.31;6245655;28;20049;-74
2022/05/14 10:47:09;;;;;;;9.10;1.65;;;;;;;18.26;52.54;101787.75;6244070;28;20053;-74
2022/05/14 10:50:15;;;;;;;4.70;1.60;;;;;;;17.91;52.92;101793.66;6245978;28;20055;-74
2022/05/14 10:53:18;;;;;;;6.38;1.48;;;;;;;17.71;53.93;101794.09;6233814;28;20049;-75
2022/05/14 10:56:26;;;;;;;7.22;1.58;;;;;;;17.68;56.18;101795.19;6231321;28;20413;-74
2022/05/14 10:59:33;;;;;;;5.10;1.60;;;;;;;17.95;54.89;101796.97;6246229;28;20052;-74
2022/05/14 11:02:41;;;;;;;4.63;1.00;;;;;;;18.27;52.48;101791.28;6245652;28;20509;-75
2022/05/14 11:06:06;;;;;;;4.05;1.42;;;;;;;18.67;52.56;101794.66;6246238;28;20045;-75
2022/05/14 11:09:18;;;;;;;7.85;1.45;;;;;;;18.93;51.64;101795.47;6246001;28;20172;-75
2022/05/14 11:12:31;;;;;;;3.95;1.27;;;;;;;19.38;50.85;101798.44;6246044;28;20080;-74
2022/05/14 11:15:32;;;;;;;4.82;1.58;;;;;;;19.34;49.06;101797.78;6245757;28;20428;-75
2022/05/14 11:18:46;;;;;;;5.28;1.20;;;;;;;19.08;50.83;101797.06;6246082;28;20057;-74
2022/05/14 11:21:48;;;;;;;2.70;1.75;;;;;;;19.24;48.37;101784.31;6245792;28;20046;-74
2022/05/14 11:24:52;;;;;;;5.13;1.45;;;;;;;19.82;46.96;101794.31;6246829;28;20049;-75
2022/05/14 11:28:00;;;;;;;7.03;1.65;;;;;;;19.98;46.10;101781.47;6250360;28;20405;-74
2022/05/14 11:31:15;;;;;;;4.32;1.48;;;;;;;19.55;47.43;101789.19;6250230;28;20056;-74
2022/05/14 11:34:20;;;;;;;5.60;1.52;;;;;;;19.64;47.15;101786.72;6249789;28;20045;-74
2022/05/14 11:37:30;;;;;;;2.70;1.00;;;;;;;20.06;45.80;101783.56;6251775;28;20048;-72
2022/05/14 11:40:33;;;;;;;2.78;1.05;;;;;;;19.56;45.16;101782.88;6251220;28;20050;-74
2022/05/14 11:43:37;;;;;;;5.15;1.02;;;;;;;19.14;45.86;101796.59;6249638;28;20046;-74
2022/05/14 11:46:43;;;;;;;3.28;0.90;;;;;;;18.84;46.47;101796.13;6249904;28;20046;-75
2022/05/14 11:49:46;;;;;;;5.00;1.33;;;;;;;18.89;47.47;101796.66;6250047;28;20053;-75
2022/05/14 11:53:00;;;;;;;6.47;1.58;;;;;;;19.04;46.62;101800.91;6250029;28;20083;-76
2022/05/14 11:56:10;;;;;;;4.78;1.80;;;;;;;18.93;47.83;101793.66;6249880;28;20137;-75
2022/05/14 11:59:19;;;;;;;6.63;1.55;;;;;;;18.91;48.20;101790.28;6249848;28;20057;-76
2022/05/14 12:02:34;;;;;;;2.42;1.05;;;;;;;19.55;49.07;101787.38;6249884;28;20485;-74
2022/05/14 12:05:41;;;;;;;6.18;1.40;;;;;;;19.35;46.02;101802.19;6249133;28;20041;-75
2022/05/14 12:09:04;;;;;;;4.38;1.40;;;;;;;18.85;47.36;101797.84;6248698;28;20041;-75
2022/05/14 12:12:14;;;;;;;2.28;1.20;;;;;;;18.83;48.40;101797.09;6246203;28;20049;-74
2022/05/14 12:15:21;;;;;;;15.43;1.52;;;;;;;18.84;48.72;101794.31;6244894;28;20049;-75
2022/05/14 12:18:23;;;;;;;10.05;1.35;;;;;;;18.88;45.92;101794.97;6248527;28;20045;-75
2022/05/14 12:21:25;;;;;;;2.42;1.40;;;;;;;18.74;47.31;101798.63;6248841;28;20076;-75
2022/05/14 12:24:30;;;;;;;7.78;1.67;;;;;;;18.66;48.82;101793.78;6248813;28;20068;-75
2022/05/14 12:27:34;;;;;;;3.78;0.98;;;;;;;18.90;48.57;101791.25;6248969;28;20136;-75
2022/05/14 12:34:02;;;;;;;5.60;1.27;;;;;;;18.88;47.65;101797.63;6192817;28;20140;-79
2022/05/14 12:37:10;;;;;;;6.30;1.25;;;;;;;18.74;47.69;101796.78;6249308;28;20045;-74
2022/05/14 12:40:21;;;;;;;4.63;1.33;;;;;;;18.71;47.22;101798.81;6248638;28;20493;-75
2022/05/14 12:43:25;;;;;;;7.35;1.17;;;;;;;18.84;46.35;101799.66;6248492;28;20045;-73
2022/05/14 12:46:27;;;;;;;13.65;2.00;;;;;;;18.82;47.21;101795.41;6248864;28;20053;-74
2022/05/14 12:49:33;;;;;;;5.65;1.27;;;;;;;18.88;47.15;101793.16;6248304;28;20049;-74
2022/05/14 12:52:34;;;;;;;5.60;1.45;;;;;;;18.95;47.52;101791.75;6248897;28;20481;-74
2022/05/14 12:55:39;;;;;;;4.93;1.13;;;;;;;18.88;48.63;101790.47;6248061;28;20045;-74
2022/05/14 12:58:43;;;;;;;8.40;1.52;;;;;;;18.83;48.47;101789.97;6248534;28;20060;-74
2022/05/14 13:01:45;;;;;;;6.70;1.05;;;;;;;19.05;47.48;101781.28;6247964;28;20049;-74
2022/05/14 13:04:55;;;;;;;11.38;2.00;;;;;;;19.37;47.36;101778.91;6247350;28;20425;-74
2022/05/14 13:08:00;;;;;;;5.55;1.60;;;;;;;19.45;46.35;101784.53;6248124;28;20053;-75
2022/05/14 13:11:06;;;;;;;5.03;1.00;;;;;;;19.68;44.62;101785.53;6247891;28;20053;-74
2022/05/14 13:14:14;;;;;;;3.92;1.50;;;;;;;19.94;44.64;101780.00;6246746;28;20179;-74
2022/05/14 13:17:16;;;;;;;4.85;1.38;;;;;;;19.95;45.21;101774.56;6247630;28;20175;-74
2022/05/14 13:20:20;;;;;;;2.63;1.30;;;;;;;19.83;44.89;101772.00;6247630;28;20467;-74
2022/05/14 13:23:22;;;;;;;12.25;1.70;;;;;;;20.13;45.59;101769.66;6247537;28;20056;-73
2022/05/14 13:26:28;;;;;;;8.55;1.67;;;;;;;20.86;45.94;101771.03;6247673;28;20489;-73
2022/05/14 13:29:33;;;;;;;5.78;1.35;;;;;;;21.23;41.51;101771.56;6247385;28;20053;-74
2022/05/14 13:32:34;;;;;;;5.80;1.33;;;;;;;20.51;41.66;101771.16;6247554;28;20489;-74
2022/05/14 13:39:03;;;;;;;4.22;1.70;;;;;;;19.78;44.76;101767.00;6247270;28;20061;-74
2022/05/14 13:42:10;;;;;;;4.70;1.38;;;;;;;19.58;46.69;101764.97;6247255;28;20057;-74
2022/05/14 13:45:20;;;;;;;3.88;1.23;;;;;;;19.44;45.88;101758.84;6246739;28;20057;-74
2022/05/14 13:48:29;;;;;;;9.00;1.65;;;;;;;19.38;45.29;101766.44;6246673;28;20045;-74
2022/05/14 13:51:33;;;;;;;8.07;1.60;;;;;;;19.41;45.35;101775.06;6246935;28;20421;-73
2022/05/14 13:54:38;;;;;;;7.20;1.45;;;;;;;19.35;45.43;101767.53;6247053;28;20053;-74
2022/05/14 13:57:41;;;;;;;7.63;1.15;;;;;;;19.39;45.21;101765.47;6246928;28;20115;-74
2022/05/14 14:00:55;;;;;;;2.90;1.00;;;;;;;19.46;47.11;101772.06;6246954;28;20045;-74
2022/05/14 14:03:58;;;;;;;5.38;1.55;;;;;;;19.51;47.02;101773.41;6245815;28;20132;-74
2022/05/14 14:07:02;;;;;;;7.22;1.25;;;;;;;19.66;46.97;101767.91;6246560;28;20420;-74
2022/05/14 14:10:20;;;;;;;4.40;1.20;;;;;;;19.65;46.19;101766.22;6246688;28;20428;-74
2022/05/14 14:13:22;;;;;;;7.22;1.15;;;;;;;19.64;47.05;101759.19;6246600;28;20464;-74
2022/05/14 14:16:25;;;;;;;10.20;1.20;;;;;;;19.63;49.77;101768.19;6246429;28;20049;-74
2022/05/14 14:19:27;;;;;;;5.15;1.70;;;;;;;19.90;47.90;101771.41;6246739;28;20056;-74
2022/05/14 14:22:28;;;;;;;6.68;1.38;;;;;;;19.98;46.92;101774.34;6245833;28;20580;-74
2022/05/14 14:25:31;;;;;;;3.65;1.20;;;;;;;20.13;47.01;101772.31;6246141;28;20059;-74
2022/05/14 14:28:33;;;;;;;6.10;1.98;;;;;;;20.32;47.61;101778.91;6246686;28;20140;-74
2022/05/14 14:31:36;;;;;;;6.75;1.60;;;;;;;20.46;46.77;101776.00;6246669;28;20057;-74
2022/05/14 14:34:38;;;;;;;5.07;1.80;;;;;;;20.34;47.10;101780.44;6245955;28;20451;-75
2022/05/14 14:37:40;;;;;;;6.43;1.95;;;;;;;20.52;46.80;101772.84;6246507;28;20179;-76
2022/05/14 14:40:42;;;;;;;8.98;1.58;;;;;;;20.92;44.46;101778.53;6246486;28;20045;-74